createdAt,value
2019-05-02T00:01:03.011Z,7.50
2019-05-02T00:03:51.368Z,7.50
2019-05-02T00:06:42.879Z,7.50
2019-05-02T00:09:29.277Z,7.50
2019-05-02T00:12:18.541Z,7.50
2019-05-02T00:15:08.445Z,7.50
2019-05-02T00:18:01.473Z,7.40
2019-05-02T00:20:47.130Z,7.50
2019-05-02T00:23:35.034Z,7.60
2019-05-02T00:26:24.576Z,7.70
2019-05-02T00:29:12.215Z,7.80
2019-05-02T00:32:00.979Z,7.80
2019-05-02T00:34:48.758Z,7.90
2019-05-02T00:37:37.039Z,7.90
2019-05-02T00:40:27.455Z,7.90
2019-05-02T00:43:15.145Z,7.90
2019-05-02T00:46:03.272Z,8.00
2019-05-02T00:48:54.121Z,8.00
2019-05-02T00:51:42.920Z,8.00
2019-05-02T00:54:30.612Z,8.00
2019-05-02T00:57:19.931Z,8.00
2019-05-02T01:00:13.450Z,8.10
2019-05-02T01:03:01.153Z,8.10
2019-05-02T01:05:49.087Z,8.00
2019-05-02T01:08:37.009Z,8.00
2019-05-02T01:11:28.182Z,7.90
2019-05-02T01:14:15.278Z,7.90
2019-05-02T01:17:03.482Z,7.80
2019-05-02T01:19:52.724Z,7.70
2019-05-02T01:22:41.172Z,7.80
2019-05-02T01:25:31.159Z,7.80
2019-05-02T01:28:20.461Z,7.70
2019-05-02T01:31:18.207Z,7.60
2019-05-02T01:34:04.707Z,7.60
2019-05-02T01:36:55.003Z,7.60
2019-05-02T01:39:44.112Z,7.60
2019-05-02T01:42:39.549Z,7.60
2019-05-02T01:45:21.830Z,7.60
2019-05-02T01:48:11.006Z,7.50
2019-05-02T01:50:59.184Z,7.50
2019-05-02T01:53:47.514Z,7.50
2019-05-02T01:56:35.543Z,7.40
2019-05-02T01:59:23.947Z,7.40
2019-05-02T02:02:12.548Z,7.30
2019-05-02T02:05:00.761Z,7.20
2019-05-02T02:07:50.727Z,7.10
2019-05-02T02:10:39.566Z,7.10
2019-05-02T02:13:31.130Z,7.10
2019-05-02T02:16:17.322Z,7.20
2019-05-02T02:19:10.119Z,7.20
2019-05-02T02:22:02.860Z,7.20
2019-05-02T02:24:50.758Z,7.10
2019-05-02T02:27:38.831Z,7.10
2019-05-02T02:30:26.853Z,7.10
2019-05-02T02:33:15.047Z,7.00
2019-05-02T02:36:03.679Z,7.10
2019-05-02T02:38:51.519Z,7.10
2019-05-02T02:41:39.417Z,7.10
2019-05-02T02:44:33.538Z,7.10
2019-05-02T02:47:20.912Z,7.20
2019-05-02T02:50:08.182Z,7.20
2019-05-02T02:52:56.064Z,7.20
2019-05-02T02:55:44.287Z,7.20
2019-05-02T02:58:44.619Z,7.10
2019-05-02T03:01:28.716Z,7.10
2019-05-02T03:04:12.240Z,7.20
2019-05-02T03:07:01.081Z,7.30
2019-05-02T03:09:49.017Z,7.30
2019-05-02T03:12:41.527Z,7.20
2019-05-02T03:15:30.809Z,7.20
2019-05-02T03:18:18.371Z,7.10
2019-05-02T03:21:06.152Z,7.20
2019-05-02T03:24:03.026Z,7.10
2019-05-02T03:26:48.602Z,7.10
2019-05-02T03:29:41.075Z,7.10
2019-05-02T03:32:33.050Z,7.20
2019-05-02T03:35:18.416Z,7.30
2019-05-02T03:38:04.090Z,7.10
2019-05-02T03:40:52.246Z,7.10
2019-05-02T03:43:40.113Z,7.00
2019-05-02T03:46:28.497Z,7.00
2019-05-02T03:49:16.623Z,7.10
2019-05-02T03:52:06.050Z,7.10
2019-05-02T03:54:58.865Z,7.10
2019-05-02T03:57:46.588Z,7.20
2019-05-02T04:00:35.322Z,7.20
2019-05-02T04:03:23.939Z,7.10
2019-05-02T04:06:20.275Z,7.00
2019-05-02T04:09:03.920Z,7.00
2019-05-02T04:11:52.141Z,7.10
2019-05-02T04:14:40.627Z,7.10
2019-05-02T04:17:35.264Z,7.00
2019-05-02T04:20:18.417Z,6.90
2019-05-02T04:23:06.997Z,6.90
2019-05-02T04:25:55.891Z,6.90
2019-05-02T04:28:45.532Z,6.90
2019-05-02T04:31:34.055Z,7.00
2019-05-02T04:34:21.723Z,7.00
2019-05-02T04:37:09.441Z,6.90
2019-05-02T04:39:59.137Z,6.90
2019-05-02T04:42:53.468Z,6.90
2019-05-02T04:45:51.627Z,6.90
2019-05-02T04:48:28.365Z,6.90
2019-05-02T04:51:17.489Z,6.90
2019-05-02T04:54:04.820Z,6.90
2019-05-02T04:56:55.302Z,7.00
2019-05-02T04:59:41.965Z,7.20
2019-05-02T05:02:36.181Z,7.40
2019-05-02T05:05:25.795Z,7.60
2019-05-02T05:08:08.601Z,7.80
2019-05-02T05:10:57.412Z,7.90
2019-05-02T05:13:47.964Z,8.00
2019-05-02T05:16:37.307Z,8.10
2019-05-02T05:19:28.707Z,8.30
2019-05-02T05:22:14.784Z,8.40
2019-05-02T05:25:04.601Z,8.50
2019-05-02T05:27:58.694Z,8.60
2019-05-02T05:30:45.120Z,8.70
2019-05-02T05:33:33.122Z,8.80
2019-05-02T05:36:29.272Z,8.90
2019-05-02T05:39:11.811Z,9.00
2019-05-02T05:41:59.753Z,9.10
2019-05-02T05:44:48.422Z,9.20
2019-05-02T05:47:37.850Z,9.30
2019-05-02T05:50:27.576Z,9.30
2019-05-02T05:53:17.377Z,9.30
2019-05-02T05:56:07.789Z,9.40
2019-05-02T05:58:58.869Z,9.30
2019-05-02T06:01:45.077Z,9.40
2019-05-02T06:04:33.410Z,9.60
2019-05-02T06:07:21.397Z,9.70
2019-05-02T06:10:09.967Z,9.80
2019-05-02T06:12:58.245Z,9.90
2019-05-02T06:15:46.511Z,10.00
2019-05-02T06:18:36.244Z,10.10
2019-05-02T06:21:25.774Z,10.20
2019-05-02T06:24:15.655Z,10.40
2019-05-02T06:27:03.669Z,10.50
2019-05-02T06:29:56.183Z,10.60
2019-05-02T06:32:41.771Z,10.80
2019-05-02T06:35:30.187Z,10.80
2019-05-02T06:38:21.660Z,10.90
2019-05-02T06:41:08.451Z,11.10
2019-05-02T06:43:56.505Z,11.20
2019-05-02T06:46:45.305Z,11.30
2019-05-02T06:49:33.726Z,11.50
2019-05-02T06:52:21.732Z,11.60
2019-05-02T06:55:10.540Z,11.80
2019-05-02T06:58:02.848Z,12.00
2019-05-02T07:00:57.706Z,12.10
2019-05-02T07:03:41.327Z,12.20
2019-05-02T07:06:27.870Z,12.30
2019-05-02T07:09:16.090Z,12.40
2019-05-02T07:12:05.153Z,12.50
2019-05-02T07:14:56.179Z,12.50
2019-05-02T07:17:44.508Z,12.40
2019-05-02T07:20:35.261Z,12.30
2019-05-02T07:23:22.408Z,12.20
2019-05-02T07:26:10.675Z,12.20
2019-05-02T07:28:58.417Z,12.20
2019-05-02T07:31:47.767Z,12.30
2019-05-02T07:34:36.625Z,12.20
2019-05-02T07:37:24.643Z,12.30
2019-05-02T07:40:16.864Z,12.30
2019-05-02T07:43:02.859Z,12.30
2019-05-02T07:45:51.332Z,12.20
2019-05-02T07:48:40.026Z,12.20
2019-05-02T07:51:28.177Z,12.20
2019-05-02T07:54:19.428Z,12.20
2019-05-02T07:57:06.719Z,12.20
2019-05-02T08:00:00.449Z,12.20
2019-05-02T08:02:46.152Z,12.20
2019-05-02T08:05:33.971Z,12.20
2019-05-02T08:08:24.966Z,12.20
2019-05-02T08:11:12.074Z,12.20
2019-05-02T08:14:00.614Z,12.20
2019-05-02T08:16:49.534Z,12.20
2019-05-02T08:19:41.611Z,12.30
2019-05-02T08:22:28.343Z,12.40
2019-05-02T08:25:16.308Z,12.40
2019-05-02T08:28:10.214Z,12.50
2019-05-02T08:30:56.593Z,12.70
2019-05-02T08:33:46.748Z,12.80
2019-05-02T08:36:34.586Z,13.10
2019-05-02T08:39:25.895Z,13.30
2019-05-02T08:42:12.501Z,13.40
2019-05-02T08:45:01.452Z,13.60
2019-05-02T08:47:49.906Z,13.80
2019-05-02T08:50:37.805Z,13.90
2019-05-02T08:53:26.153Z,13.90
2019-05-02T08:56:16.056Z,13.80
2019-05-02T08:59:04.117Z,14.10
2019-05-02T09:01:52.559Z,14.20
2019-05-02T09:04:40.449Z,14.00
2019-05-02T09:07:31.662Z,14.00
2019-05-02T09:10:18.720Z,13.90
2019-05-02T09:13:06.980Z,13.70
2019-05-02T09:15:55.722Z,13.60
2019-05-02T09:18:50.746Z,13.40
2019-05-02T09:21:35.984Z,13.30
2019-05-02T09:24:23.925Z,13.40
2019-05-02T09:27:12.690Z,13.40
2019-05-02T09:30:02.735Z,13.40
2019-05-02T09:32:52.165Z,13.30
2019-05-02T09:35:42.200Z,13.30
2019-05-02T09:38:32.724Z,13.20
2019-05-02T09:41:22.127Z,13.10
2019-05-02T09:44:17.103Z,12.90
2019-05-02T09:47:02.246Z,13.00
2019-05-02T09:49:53.093Z,13.10
2019-05-02T09:52:43.669Z,13.00
2019-05-02T09:55:31.748Z,13.00
2019-05-02T09:58:21.369Z,12.90
2019-05-02T10:01:13.380Z,12.70
2019-05-02T10:04:02.371Z,12.50
2019-05-02T10:06:52.442Z,12.40
2019-05-02T10:09:40.040Z,12.30
2019-05-02T10:12:28.329Z,12.20
2019-05-02T10:15:18.275Z,12.30
2019-05-02T10:18:11.066Z,12.30
2019-05-02T10:20:55.493Z,12.40
2019-05-02T10:23:43.998Z,12.50
2019-05-02T10:26:32.973Z,12.60
2019-05-02T10:29:28.084Z,12.60
2019-05-02T10:32:12.992Z,12.70
2019-05-02T10:35:02.116Z,12.80
2019-05-02T10:37:52.023Z,12.80
2019-05-02T10:40:40.040Z,13.00
2019-05-02T10:43:28.649Z,13.20
2019-05-02T10:46:18.835Z,13.20
2019-05-02T10:49:19.921Z,13.10
2019-05-02T10:52:08.188Z,13.10
2019-05-02T10:54:56.474Z,13.10
2019-05-02T10:57:44.368Z,13.10
2019-05-02T11:00:34.321Z,13.00
2019-05-02T11:03:32.956Z,12.90
2019-05-02T11:06:22.253Z,12.90
2019-05-02T11:09:12.025Z,12.70
2019-05-02T11:12:02.584Z,12.80
2019-05-02T11:15:08.880Z,12.80
2019-05-02T11:17:57.289Z,12.80
2019-05-02T11:20:45.595Z,12.90
2019-05-02T11:23:33.865Z,12.90
2019-05-02T11:26:25.065Z,12.90
2019-05-02T11:29:12.153Z,12.80
2019-05-02T11:32:02.240Z,12.90
2019-05-02T11:34:49.725Z,13.00
2019-05-02T11:37:37.038Z,13.00
2019-05-02T11:40:25.143Z,13.20
2019-05-02T11:43:13.397Z,13.40
2019-05-02T11:46:07.082Z,13.60
2019-05-02T11:48:56.473Z,13.80
2019-05-02T11:51:42.131Z,13.90
2019-05-02T11:54:31.989Z,14.00
2019-05-02T11:57:28.333Z,14.10
2019-05-02T12:00:12.467Z,14.30
2019-05-02T12:03:13.627Z,14.40
2019-05-02T12:06:06.715Z,14.40
2019-05-02T12:08:52.520Z,14.30
2019-05-02T12:11:41.836Z,14.40
2019-05-02T12:14:32.859Z,14.40
2019-05-02T12:17:19.396Z,14.40
2019-05-02T12:20:08.054Z,14.40
2019-05-02T12:22:56.128Z,14.60
2019-05-02T12:25:44.684Z,14.90
2019-05-02T12:28:33.107Z,14.90
2019-05-02T12:31:27.156Z,14.90
2019-05-02T12:34:14.878Z,15.10
2019-05-02T12:37:02.621Z,15.20
2019-05-02T12:39:51.707Z,15.10
2019-05-02T12:42:41.735Z,15.20
2019-05-02T12:45:29.442Z,15.10
2019-05-02T12:48:17.585Z,15.10
2019-05-02T12:51:05.941Z,15.00
2019-05-02T12:53:54.428Z,15.10
2019-05-02T12:56:44.106Z,15.00
2019-05-02T12:59:32.271Z,15.00
2019-05-02T13:02:22.789Z,14.70
2019-05-02T13:05:13.023Z,14.50
2019-05-02T13:08:00.182Z,14.30
2019-05-02T13:11:08.419Z,14.20
2019-05-02T13:13:56.623Z,14.50
2019-05-02T13:16:44.891Z,14.60
2019-05-02T13:19:57.045Z,14.50
2019-05-02T13:22:52.727Z,14.70
2019-05-02T13:25:42.365Z,14.80
2019-05-02T13:28:32.343Z,14.80
2019-05-02T13:31:24.956Z,14.90
2019-05-02T13:34:23.513Z,15.00
2019-05-02T13:37:12.831Z,15.10
2019-05-02T13:40:02.822Z,15.10
2019-05-02T13:42:52.306Z,15.00
2019-05-02T13:45:43.249Z,15.30
2019-05-02T13:48:32.275Z,15.70
2019-05-02T13:51:22.330Z,15.80
2019-05-02T13:54:12.432Z,15.90
2019-05-02T13:57:00.256Z,15.90
2019-05-02T13:59:48.234Z,15.80
2019-05-02T14:02:38.886Z,15.80
2019-05-02T14:05:27.511Z,15.90
2019-05-02T14:08:17.681Z,15.80
2019-05-02T14:11:07.266Z,15.50
2019-05-02T14:13:55.226Z,15.80
2019-05-02T14:16:43.411Z,15.80
2019-05-02T14:19:32.313Z,15.60
2019-05-02T14:22:20.216Z,15.30
2019-05-02T14:25:08.459Z,15.20
2019-05-02T14:27:56.932Z,15.30
2019-05-02T14:30:46.347Z,15.50
2019-05-02T14:33:36.577Z,15.50
2019-05-02T14:36:25.105Z,15.70
2019-05-02T14:39:13.067Z,16.00
2019-05-02T14:42:02.095Z,15.80
2019-05-02T14:45:05.597Z,15.70
2019-05-02T14:47:39.878Z,15.60
2019-05-02T14:50:28.550Z,15.70
2019-05-02T14:53:16.886Z,15.90
2019-05-02T14:56:12.471Z,15.90
2019-05-02T14:59:00.119Z,15.70
2019-05-02T15:01:57.791Z,15.60
2019-05-02T15:04:48.937Z,15.80
2019-05-02T15:07:34.456Z,15.60
2019-05-02T15:10:22.832Z,15.30
2019-05-02T15:13:12.569Z,15.00
2019-05-02T15:16:02.483Z,15.10
2019-05-02T15:18:53.172Z,15.20
2019-05-02T15:21:47.024Z,15.40
2019-05-02T15:24:37.615Z,15.30
2019-05-02T15:27:22.356Z,15.40
2019-05-02T15:30:11.368Z,15.60
2019-05-02T15:33:04.083Z,15.80
2019-05-02T15:36:03.061Z,16.00
2019-05-02T15:38:48.905Z,16.30
2019-05-02T15:41:39.904Z,16.50
2019-05-02T15:44:27.115Z,16.10
2019-05-02T15:47:15.360Z,15.80
2019-05-02T15:50:05.362Z,16.30
2019-05-02T15:53:03.306Z,16.90
2019-05-02T15:55:52.564Z,17.00
2019-05-02T15:58:39.978Z,17.00
2019-05-02T16:01:36.667Z,17.50
2019-05-02T16:04:25.625Z,17.20
2019-05-02T16:07:13.661Z,16.90
2019-05-02T16:10:03.842Z,16.50
2019-05-02T16:12:52.677Z,16.30
2019-05-02T16:15:42.683Z,16.20
2019-05-02T16:18:31.714Z,16.10
2019-05-02T16:21:28.426Z,16.10
2019-05-02T16:24:22.515Z,15.90
2019-05-02T16:27:11.695Z,15.70
2019-05-02T16:30:06.075Z,15.40
2019-05-02T16:32:53.456Z,15.30
2019-05-02T16:35:42.013Z,15.20
2019-05-02T16:38:49.765Z,15.40
2019-05-02T16:41:45.269Z,15.30
2019-05-02T16:44:27.561Z,15.40
2019-05-02T16:47:17.126Z,15.60
2019-05-02T16:50:13.121Z,15.70
2019-05-02T16:53:02.251Z,15.70
2019-05-02T16:55:51.065Z,15.60
2019-05-02T16:58:44.790Z,15.50
2019-05-02T17:01:28.658Z,15.30
2019-05-02T17:04:16.918Z,15.10
2019-05-02T17:07:07.136Z,15.00
2019-05-02T17:09:56.210Z,15.00
2019-05-02T17:12:47.310Z,15.20
2019-05-02T17:15:37.074Z,15.20
2019-05-02T17:18:25.411Z,15.20
2019-05-02T17:21:13.696Z,15.30
2019-05-02T17:24:02.587Z,15.20
2019-05-02T17:26:51.902Z,15.30
2019-05-02T17:29:41.529Z,15.20
2019-05-02T17:32:34.162Z,15.30
2019-05-02T17:35:22.013Z,15.10
2019-05-02T17:38:11.892Z,15.10
2019-05-02T17:41:06.393Z,15.00
2019-05-02T17:43:49.084Z,15.10
2019-05-02T17:46:39.295Z,15.10
2019-05-02T17:49:31.851Z,15.10
2019-05-02T17:52:25.989Z,15.30
2019-05-02T17:55:09.388Z,15.40
2019-05-02T17:57:56.990Z,15.50
2019-05-02T18:00:52.318Z,15.00
2019-05-02T18:03:42.361Z,15.10
2019-05-02T18:06:32.986Z,15.30
2019-05-02T18:09:21.562Z,15.10
2019-05-02T18:12:12.560Z,14.80
2019-05-02T18:15:00.471Z,14.60
2019-05-02T18:17:48.840Z,14.40
2019-05-02T18:20:55.903Z,14.40
2019-05-02T18:23:44.086Z,14.20
2019-05-02T18:26:33.029Z,14.00
2019-05-02T18:29:21.768Z,14.00
2019-05-02T18:32:17.523Z,13.90
2019-05-02T18:35:06.550Z,13.70
2019-05-02T18:37:54.530Z,13.50
2019-05-02T18:40:43.479Z,13.50
2019-05-02T18:43:35.955Z,13.40
2019-05-02T18:46:22.318Z,13.40
2019-05-02T18:49:12.326Z,13.30
2019-05-02T18:52:01.794Z,13.10
2019-05-02T18:54:51.751Z,13.00
2019-05-02T18:57:39.922Z,12.90
2019-05-02T19:00:35.434Z,12.90
2019-05-02T19:03:17.907Z,12.80
2019-05-02T19:06:07.238Z,12.70
2019-05-02T19:08:58.054Z,12.70
2019-05-02T19:11:46.644Z,12.70
2019-05-02T19:14:35.431Z,12.70
2019-05-02T19:17:23.315Z,12.60
2019-05-02T19:20:29.170Z,12.60
2019-05-02T19:23:16.598Z,12.40
2019-05-02T19:26:10.027Z,12.30
2019-05-02T19:28:57.642Z,12.20
2019-05-02T19:31:46.500Z,12.10
2019-05-02T19:34:34.949Z,12.10
2019-05-02T19:37:22.717Z,12.00
2019-05-02T19:40:14.952Z,11.90
2019-05-02T19:43:07.551Z,11.90
2019-05-02T19:45:54.051Z,11.80
2019-05-02T19:48:43.024Z,11.80
2019-05-02T19:51:31.715Z,11.70
2019-05-02T19:54:21.839Z,11.70
2019-05-02T19:57:11.852Z,11.80
2019-05-02T20:00:02.858Z,11.80
2019-05-02T20:02:50.033Z,11.80
2019-05-02T20:05:38.635Z,11.70
2019-05-02T20:08:26.999Z,11.80
2019-05-02T20:11:15.284Z,11.80
2019-05-02T20:14:09.162Z,11.80
2019-05-02T20:16:55.603Z,11.80
2019-05-02T20:19:45.122Z,11.80
2019-05-02T20:22:36.265Z,11.90
2019-05-02T20:25:23.507Z,11.90
2019-05-02T20:28:11.598Z,11.90
2019-05-02T20:31:01.672Z,11.90
2019-05-02T20:33:52.020Z,11.90
2019-05-02T20:36:39.991Z,11.80
2019-05-02T20:39:28.738Z,11.70
2019-05-02T20:42:16.740Z,11.70
2019-05-02T20:45:07.513Z,11.70
2019-05-02T20:47:55.497Z,11.70
2019-05-02T20:50:43.806Z,11.70
2019-05-02T20:53:34.280Z,11.70
2019-05-02T20:56:22.971Z,11.70
2019-05-02T20:59:12.693Z,11.70
2019-05-02T21:02:01.711Z,11.70
2019-05-02T21:04:52.141Z,11.70
2019-05-02T21:07:52.398Z,11.70
2019-05-02T21:10:41.776Z,11.70
2019-05-02T21:13:32.725Z,11.70
2019-05-02T21:16:21.883Z,11.60
2019-05-02T21:19:12.240Z,11.70
2019-05-02T21:22:02.556Z,11.70
2019-05-02T21:24:52.692Z,11.60
2019-05-02T21:27:41.815Z,11.60
2019-05-02T21:30:32.268Z,11.60
2019-05-02T21:33:35.618Z,11.60
2019-05-02T21:36:23.808Z,11.50
2019-05-02T21:39:12.840Z,11.50
2019-05-02T21:42:02.340Z,11.50
2019-05-02T21:44:51.806Z,11.50
2019-05-02T21:47:42.047Z,11.40
2019-05-02T21:50:32.321Z,11.40
2019-05-02T21:53:24.619Z,11.40
2019-05-02T21:56:17.510Z,11.30
2019-05-02T21:59:06.092Z,11.30
2019-05-02T22:01:58.876Z,11.20
2019-05-02T22:04:46.722Z,11.20
2019-05-02T22:07:34.684Z,11.20
2019-05-02T22:10:22.796Z,11.10
2019-05-02T22:13:11.284Z,11.10
2019-05-02T22:15:59.036Z,11.10
2019-05-02T22:18:47.652Z,11.00
2019-05-02T22:21:36.181Z,11.00
2019-05-02T22:24:24.332Z,10.90
2019-05-02T22:27:12.486Z,10.90
2019-05-02T22:30:02.127Z,10.80
2019-05-02T22:32:51.668Z,10.80
2019-05-02T22:35:43.197Z,10.90
2019-05-02T22:38:31.819Z,10.80
2019-05-02T22:41:22.036Z,10.80
2019-05-02T22:44:09.452Z,10.80
2019-05-02T22:46:57.725Z,10.80
2019-05-02T22:49:45.668Z,10.80
2019-05-02T22:52:33.840Z,10.70
2019-05-02T22:55:22.620Z,10.70
2019-05-02T22:58:11.216Z,10.70
2019-05-02T23:01:01.580Z,10.70
2019-05-02T23:03:48.974Z,10.70
2019-05-02T23:06:37.026Z,10.70
2019-05-02T23:09:24.945Z,10.70
2019-05-02T23:12:13.464Z,10.70
2019-05-02T23:15:02.092Z,10.70
2019-05-02T23:17:52.260Z,10.70
2019-05-02T23:20:42.169Z,10.80
2019-05-02T23:23:32.734Z,10.80
2019-05-02T23:26:31.760Z,10.80
2019-05-02T23:29:20.154Z,10.80
2019-05-02T23:32:09.003Z,10.70
2019-05-02T23:34:57.179Z,10.70
2019-05-02T23:37:45.060Z,10.70
2019-05-02T23:40:33.509Z,10.70
2019-05-02T23:43:21.908Z,10.70
2019-05-02T23:46:11.618Z,10.60
2019-05-02T23:49:01.859Z,10.60
2019-05-02T23:51:49.440Z,10.60
2019-05-02T23:54:49.272Z,10.60
2019-05-02T23:57:26.918Z,10.60
